Time;durP1;ratioP1;P1;durP2;ratioP2;P2;SDS_P1;SDS_P2;PMS_P1;PMS_P2;Temp;Humidity;BMP_temperature;BMP_pressure;BME280_temperature;BME280_humidity;BME280_pressure;Samples;Min_cycle;Max_cycle;Signal;HPM_P1;HPM_P2
2023/10/15 00:00:18;;;;;;;11.60;4.30;;;;;;;6.87;89.01;100015.50;130354;1256;114710;-76
2023/10/15 00:03:41;;;;;;;12.30;4.40;;;;;;;6.83;89.04;100021.33;130334;1257;114841;-74
2023/10/15 00:06:43;;;;;;;11.00;4.00;;;;;;;6.80;89.18;100019.48;130358;1257;115144;-78
2023/10/15 00:09:45;;;;;;;11.50;3.60;;;;;;;6.79;89.01;100021.52;130435;1254;114787;-75
2023/10/15 00:12:49;;;;;;;11.30;4.00;;;;;;;6.77;89.48;100027.41;130426;1258;114729;-78
2023/10/15 00:15:51;;;;;;;13.40;4.20;;;;;;;6.77;89.62;100029.03;130359;1257;114744;-75
2023/10/15 00:18:53;;;;;;;16.20;4.00;;;;;;;6.77;89.38;100028.30;130309;1254;114713;-75
2023/10/15 00:21:55;;;;;;;11.70;5.30;;;;;;;6.80;89.79;100026.06;130263;1254;115233;-78
2023/10/15 00:24:57;;;;;;;14.50;5.20;;;;;;;6.85;90.34;100026.23;130474;1256;115273;-74
2023/10/15 00:27:59;;;;;;;10.40;3.90;;;;;;;6.91;90.25;100018.39;130321;1254;114822;-77
2023/10/15 00:31:08;;;;;;;15.60;4.80;;;;;;;6.97;90.35;100016.73;130296;1254;115173;-78
2023/10/15 00:34:12;;;;;;;6.70;3.40;;;;;;;7.03;90.58;100015.23;130364;1256;114789;-78
2023/10/15 00:37:14;;;;;;;9.20;3.40;;;;;;;7.09;90.78;100021.40;130337;1267;128001;-77
2023/10/15 00:40:20;;;;;;;12.60;4.10;;;;;;;7.13;90.76;100019.45;130337;1256;114731;-77
2023/10/15 00:43:22;;;;;;;11.10;3.40;;;;;;;7.15;90.78;100014.59;130833;1256;115145;-78
2023/10/15 00:46:28;;;;;;;15.00;3.20;;;;;;;7.17;90.64;100012.91;130345;1256;114712;-79
2023/10/15 00:49:31;;;;;;;8.70;3.20;;;;;;;7.19;90.61;100016.71;130353;1259;114848;-77
2023/10/15 00:52:37;;;;;;;6.00;3.00;;;;;;;7.21;90.63;100019.30;130328;1256;114764;-77
2023/10/15 00:55:42;;;;;;;12.10;3.40;;;;;;;7.23;90.85;100019.39;130391;1270;115178;-77
2023/10/15 00:59:07;;;;;;;7.70;2.60;;;;;;;7.27;91.05;100023.86;130365;1256;114779;-77
2023/10/15 01:02:12;;;;;;;16.20;3.90;;;;;;;7.31;91.00;100023.52;130283;1256;114816;-77
2023/10/15 01:05:14;;;;;;;14.90;2.80;;;;;;;7.36;91.16;100025.64;130287;1256;114767;-77
2023/10/15 01:08:16;;;;;;;10.60;3.10;;;;;;;7.41;91.40;100029.52;130382;1256;115499;-78
2023/10/15 01:11:19;;;;;;;15.00;2.80;;;;;;;7.46;91.35;100027.00;130308;1254;114721;-77
2023/10/15 01:14:31;;;;;;;12.40;3.10;;;;;;;7.53;91.70;100024.62;130347;1256;114766;-75
2023/10/15 01:17:37;;;;;;;11.60;3.40;;;;;;;7.58;91.24;100017.80;130335;1260;114762;-79
2023/10/15 01:20:42;;;;;;;16.60;3.60;;;;;;;7.62;91.40;100017.12;130378;1259;114695;-75
2023/10/15 01:23:52;;;;;;;22.20;4.20;;;;;;;7.63;91.05;100022.40;130462;1256;114822;-77
2023/10/15 01:30:17;;;;;;;16.00;3.70;;;;;;;7.57;90.59;100024.05;129894;1257;114922;-78
2023/10/15 01:33:19;;;;;;;9.70;3.40;;;;;;;7.53;90.33;100023.70;130275;1257;114770;-78
2023/10/15 01:36:27;;;;;;;12.70;3.70;;;;;;;7.48;90.30;100020.52;130373;1257;115157;-77
2023/10/15 01:39:39;;;;;;;11.00;3.30;;;;;;;7.43;90.06;100022.17;130342;1257;114854;-76
2023/10/15 01:42:46;;;;;;;13.50;3.10;;;;;;;7.37;90.09;100028.80;130323;1256;128838;-76
2023/10/15 01:45:56;;;;;;;11.40;2.70;;;;;;;7.32;89.86;100028.48;130286;1256;115193;-79
2023/10/15 01:48:58;;;;;;;4.60;1.60;;;;;;;7.27;89.68;100030.11;130304;1254;114758;-79
2023/10/15 01:52:24;;;;;;;8.30;2.20;;;;;;;7.23;89.69;100032.91;130305;1254;114748;-79
2023/10/15 01:55:28;;;;;;;10.10;2.70;;;;;;;7.19;89.65;100037.15;130160;1260;114922;-79
2023/10/15 01:58:31;;;;;;;10.10;2.40;;;;;;;7.16;89.54;100038.70;130409;1254;127881;-79
2023/10/15 02:01:40;;;;;;;10.40;1.90;;;;;;;7.12;89.65;100040.25;130161;1259;115093;-78
2023/10/15 02:04:46;;;;;;;7.20;1.70;;;;;;;7.10;89.18;100038.95;130347;1254;114742;-78
2023/10/15 02:07:48;;;;;;;6.20;1.90;;;;;;;7.07;89.17;100044.90;130009;1256;115360;-79
2023/10/15 02:10:52;;;;;;;8.80;2.20;;;;;;;7.05;89.21;100044.64;130273;1270;115375;-79
2023/10/15 02:13:55;;;;;;;8.10;2.00;;;;;;;7.01;89.18;100044.07;130174;1259;114720;-79
2023/10/15 02:16:59;;;;;;;16.60;2.60;;;;;;;6.99;89.14;100047.52;130428;1256;115190;-79
2023/10/15 02:20:08;;;;;;;10.10;2.20;;;;;;;6.96;89.36;100044.42;130448;1256;114817;-79
2023/10/15 02:23:15;;;;;;;12.40;2.90;;;;;;;6.96;89.13;100043.21;130402;1257;114746;-78
2023/10/15 02:26:18;;;;;;;7.60;2.10;;;;;;;6.95;89.31;100046.08;130367;1275;114770;-76
2023/10/15 02:32:39;;;;;;;5.20;1.50;;;;;;;6.92;89.10;100045.48;130361;1256;114719;-75
2023/10/15 02:35:45;;;;;;;8.80;1.90;;;;;;;6.89;89.16;100044.17;130359;1257;114725;-73
2023/10/15 02:38:53;;;;;;;9.00;2.00;;;;;;;6.87;89.08;100051.56;130424;1257;115049;-79
2023/10/15 02:41:56;;;;;;;7.70;2.10;;;;;;;6.84;89.20;100056.61;130325;1256;114766;-80
2023/10/15 02:44:59;;;;;;;9.40;1.70;;;;;;;6.81;89.09;100056.38;130457;1252;114728;-80
2023/10/15 02:48:10;;;;;;;8.50;2.10;;;;;;;6.78;89.21;100057.40;130350;1260;114721;-78
2023/10/15 02:51:14;;;;;;;5.00;1.80;;;;;;;6.75;89.07;100061.77;130526;1275;114811;-79
2023/10/15 02:54:26;;;;;;;9.30;1.80;;;;;;;6.71;89.08;100061.55;130146;1252;115055;-80
2023/10/15 02:57:30;;;;;;;7.70;1.80;;;;;;;6.68;89.18;100062.38;130379;1254;114795;-79
2023/10/15 03:00:32;;;;;;;10.90;2.10;;;;;;;6.66;89.19;100068.11;130366;1275;128621;-76
2023/10/15 03:03:35;;;;;;;6.20;1.60;;;;;;;6.63;88.87;100063.27;130451;1256;114874;-80
2023/10/15 03:06:41;;;;;;;11.40;2.20;;;;;;;6.60;89.12;100059.29;130445;1256;114725;-79
2023/10/15 03:09:44;;;;;;;7.10;2.10;;;;;;;6.57;88.92;100061.36;130356;1255;114937;-78
2023/10/15 03:12:46;;;;;;;6.20;1.90;;;;;;;6.54;88.99;100065.55;130356;1257;115243;-78
2023/10/15 03:15:48;;;;;;;5.90;1.90;;;;;;;6.50;88.81;100067.13;130179;1259;114768;-77
2023/10/15 03:18:52;;;;;;;10.00;2.30;;;;;;;6.45;88.65;100071.19;130403;1253;114736;-77
2023/10/15 03:21:59;;;;;;;7.20;2.00;;;;;;;6.40;88.97;100064.61;130362;1258;115204;-77
2023/10/15 03:25:03;;;;;;;6.60;2.70;;;;;;;6.37;89.06;100069.54;130368;1262;114805;-79
2023/10/15 03:28:07;;;;;;;13.40;2.00;;;;;;;6.33;88.99;100069.67;127973;1260;3199051;-76
2023/10/15 03:31:09;;;;;;;11.70;2.60;;;;;;;6.28;88.92;100068.63;130214;1259;114745;-75
2023/10/15 03:37:17;;;;;;;13.50;1.90;;;;;;;6.17;88.82;100069.52;130274;1259;114733;-77
2023/10/15 03:43:39;;;;;;;10.30;2.30;;;;;;;6.06;89.01;100065.82;130222;1254;115066;-77
2023/10/15 03:46:41;;;;;;;6.30;1.70;;;;;;;6.01;89.05;100072.20;130063;1254;114736;-77
2023/10/15 03:49:46;;;;;;;11.30;2.40;;;;;;;5.97;89.07;100073.55;130258;1259;114806;-77
2023/10/15 03:52:48;;;;;;;9.20;2.20;;;;;;;5.92;89.11;100079.20;130303;1258;114798;-78
2023/10/15 03:55:50;;;;;;;9.30;2.20;;;;;;;5.88;89.18;100076.30;130259;1260;114822;-77
2023/10/15 03:58:53;;;;;;;13.90;1.80;;;;;;;5.85;89.14;100074.46;130271;1268;114665;-77
2023/10/15 04:01:56;;;;;;;8.70;2.40;;;;;;;5.83;89.28;100076.83;130154;1278;115240;-77
2023/10/15 04:05:08;;;;;;;9.60;3.00;;;;;;;5.81;89.33;100078.17;130276;1259;116265;-78
2023/10/15 04:08:18;;;;;;;6.20;2.00;;;;;;;5.77;89.26;100075.79;130311;1254;114722;-74
2023/10/15 04:11:29;;;;;;;7.30;2.00;;;;;;;5.75;89.37;100071.44;130180;1259;114646;-73
2023/10/15 04:14:34;;;;;;;10.60;2.20;;;;;;;5.73;89.34;100067.80;130270;1276;126606;-73
2023/10/15 04:17:36;;;;;;;8.60;1.80;;;;;;;5.71;89.43;100070.70;130224;1256;114737;-74
2023/10/15 04:20:42;;;;;;;8.50;2.30;;;;;;;5.68;89.53;100064.07;130345;1256;114850;-72
2023/10/15 04:23:49;;;;;;;7.40;1.70;;;;;;;5.66;89.60;100062.71;130366;1257;114799;-78
2023/10/15 04:26:51;;;;;;;7.90;2.80;;;;;;;5.62;89.51;100057.68;130333;1276;114767;-76
2023/10/15 04:29:55;;;;;;;9.90;2.30;;;;;;;5.59;89.57;100056.38;130377;1256;114784;-76
2023/10/15 04:32:57;;;;;;;9.10;2.20;;;;;;;5.57;89.63;100058.39;130343;1276;115321;-75
2023/10/15 04:36:01;;;;;;;9.70;2.60;;;;;;;5.55;89.72;100055.98;130254;1276;114799;-76
2023/10/15 04:39:12;;;;;;;12.00;2.50;;;;;;;5.52;89.69;100061.58;130236;1257;114775;-78
2023/10/15 04:42:20;;;;;;;5.60;1.90;;;;;;;5.49;89.69;100063.79;130321;1263;114815;-75
2023/10/15 04:48:37;;;;;;;13.80;2.20;;;;;;;5.44;89.70;100066.08;130324;1270;115890;-78
2023/10/15 04:51:42;;;;;;;13.40;2.40;;;;;;;5.42;89.75;100062.23;130364;1266;115148;-79
2023/10/15 04:54:45;;;;;;;9.70;2.60;;;;;;;5.40;89.86;100061.23;130407;1260;114796;-79
2023/10/15 04:57:47;;;;;;;13.70;3.20;;;;;;;5.38;90.00;100064.68;130284;1266;114712;-74
2023/10/15 05:00:49;;;;;;;13.70;3.30;;;;;;;5.36;89.85;100064.20;130360;1256;114717;-77
2023/10/15 05:03:51;;;;;;;10.10;3.00;;;;;;;5.35;89.78;100067.61;130269;1266;128627;-77
2023/10/15 05:06:53;;;;;;;8.00;2.30;;;;;;;5.33;89.88;100068.00;130210;1267;116359;-78
2023/10/15 05:09:55;;;;;;;9.00;2.30;;;;;;;5.31;90.16;100067.51;130382;1257;114680;-77
2023/10/15 05:12:59;;;;;;;14.00;2.30;;;;;;;5.29;90.01;100065.29;130177;1262;114831;-75
2023/10/15 05:16:02;;;;;;;12.00;2.40;;;;;;;5.28;90.11;100070.45;130425;1258;114818;-78
2023/10/15 05:19:06;;;;;;;11.20;2.00;;;;;;;5.27;90.08;100065.90;130513;1264;114780;-78
2023/10/15 05:22:09;;;;;;;8.00;1.60;;;;;;;5.27;90.15;100066.80;130041;1276;127864;-76
2023/10/15 05:25:17;;;;;;;10.70;2.50;;;;;;;5.27;90.45;100072.29;130274;1266;115102;-77
2023/10/15 05:28:19;;;;;;;12.00;2.50;;;;;;;5.28;90.28;100073.48;130398;1272;115238;-76
2023/10/15 05:31:21;;;;;;;16.40;2.70;;;;;;;5.29;90.54;100076.29;130299;1259;114696;-78
2023/10/15 05:34:23;;;;;;;11.20;2.20;;;;;;;5.32;90.43;100080.97;130320;1254;115193;-77
2023/10/15 05:37:25;;;;;;;20.60;2.60;;;;;;;5.35;90.76;100088.48;130340;1272;114763;-77
2023/10/15 05:40:27;;;;;;;9.40;1.90;;;;;;;5.39;90.76;100086.07;130322;1265;114936;-78
2023/10/15 05:43:29;;;;;;;15.50;3.00;;;;;;;5.42;90.80;100093.39;130523;1276;114827;-76
2023/10/15 05:46:31;;;;;;;11.40;2.10;;;;;;;5.46;90.81;100096.27;130264;1264;116324;-76
2023/10/15 05:49:33;;;;;;;9.20;2.30;;;;;;;5.52;90.90;100095.92;130236;1256;115154;-77
2023/10/15 05:52:35;;;;;;;12.50;2.40;;;;;;;5.58;90.90;100090.23;130319;1260;114830;-77
2023/10/15 05:55:38;;;;;;;12.80;2.30;;;;;;;5.65;91.05;100093.22;130390;1272;115096;-77
2023/10/15 05:58:40;;;;;;;12.90;1.70;;;;;;;5.74;91.16;100096.11;130251;1267;114802;-77
2023/10/15 06:01:42;;;;;;;8.20;2.30;;;;;;;5.84;91.06;100098.60;130315;1266;115171;-78
2023/10/15 06:04:44;;;;;;;10.60;2.00;;;;;;;5.96;91.16;100099.10;130087;1262;128499;-78
2023/10/15 06:07:46;;;;;;;8.80;1.80;;;;;;;6.08;91.20;100099.96;130333;1268;114719;-78
2023/10/15 06:10:48;;;;;;;13.60;2.10;;;;;;;6.21;91.04;100104.13;130266;1260;114738;-78
2023/10/15 06:13:50;;;;;;;10.20;2.60;;;;;;;6.34;90.99;100107.93;129984;1261;115272;-79
2023/10/15 06:16:52;;;;;;;13.60;2.00;;;;;;;6.47;90.81;100110.67;130381;1259;114713;-78
2023/10/15 06:19:54;;;;;;;10.20;2.00;;;;;;;6.60;90.89;100111.30;130444;1275;115160;-79
2023/10/15 06:22:56;;;;;;;13.70;2.30;;;;;;;6.72;90.43;100115.98;130423;1267;114757;-78
2023/10/15 06:25:58;;;;;;;14.70;2.60;;;;;;;6.85;90.38;100118.90;130382;1257;114661;-78
2023/10/15 06:29:00;;;;;;;9.20;2.30;;;;;;;6.98;90.17;100119.84;130271;1260;114878;-79
2023/10/15 06:32:03;;;;;;;12.50;2.70;;;;;;;7.12;90.23;100117.89;130197;1260;115209;-79
2023/10/15 06:35:05;;;;;;;9.60;2.60;;;;;;;7.26;90.28;100124.44;130394;1276;115124;-78
2023/10/15 06:38:08;;;;;;;17.80;2.70;;;;;;;7.42;90.09;100125.09;130169;1260;114743;-79
2023/10/15 06:41:10;;;;;;;10.80;2.80;;;;;;;7.57;89.36;100127.13;130113;1263;115255;-77
2023/10/15 06:44:12;;;;;;;11.50;2.00;;;;;;;7.73;89.23;100125.44;130151;1264;114719;-79
2023/10/15 06:47:14;;;;;;;21.10;3.80;;;;;;;7.88;89.00;100127.16;130284;1257;114728;-77
2023/10/15 06:50:19;;;;;;;10.10;2.60;;;;;;;8.05;88.77;100132.49;129986;1265;115332;-77
2023/10/15 06:53:21;;;;;;;12.50;2.00;;;;;;;8.21;88.27;100139.84;130342;1257;115183;-77
2023/10/15 06:56:23;;;;;;;19.40;2.40;;;;;;;8.37;88.33;100139.52;130335;1257;115186;-79
2023/10/15 06:59:27;;;;;;;7.30;1.90;;;;;;;8.54;87.92;100139.72;130106;1260;114760;-80
2023/10/15 07:02:29;;;;;;;10.80;2.50;;;;;;;8.71;87.76;100137.38;130255;1261;114744;-79
2023/10/15 07:05:31;;;;;;;15.50;2.30;;;;;;;8.88;87.26;100138.23;129993;1264;114807;-75
2023/10/15 07:08:34;;;;;;;9.60;1.90;;;;;;;9.04;86.90;100137.66;130303;1260;116516;-80
2023/10/15 07:11:36;;;;;;;9.80;2.60;;;;;;;9.22;86.47;100142.55;130388;1254;114781;-80
2023/10/15 07:14:39;;;;;;;7.00;2.00;;;;;;;9.40;85.96;100139.19;130295;1257;115710;-78
2023/10/15 07:17:43;;;;;;;9.10;2.10;;;;;;;9.60;86.17;100138.98;130326;1257;114724;-79
2023/10/15 07:20:45;;;;;;;11.30;2.40;;;;;;;9.82;85.70;100140.62;130232;1269;114748;-81
2023/10/15 07:23:51;;;;;;;8.30;2.90;;;;;;;10.04;85.05;100143.27;130276;1276;114721;-80
2023/10/15 07:26:53;;;;;;;12.30;2.20;;;;;;;10.25;84.57;100141.67;129923;1267;128122;-80
2023/10/15 07:29:55;;;;;;;9.50;2.20;;;;;;;10.48;84.40;100147.87;130411;1257;114859;-76
2023/10/15 07:32:57;;;;;;;11.60;1.90;;;;;;;10.74;83.70;100146.67;130320;1257;114846;-79
2023/10/15 07:36:01;;;;;;;9.30;1.80;;;;;;;11.06;83.31;100143.23;130307;1257;114718;-82
2023/10/15 07:39:06;;;;;;;8.10;2.70;;;;;;;11.41;82.73;100143.25;130052;1260;115542;-80
2023/10/15 07:42:09;;;;;;;9.20;2.30;;;;;;;11.74;81.74;100141.27;130367;1260;114719;-76
2023/10/15 07:45:12;;;;;;;10.30;2.00;;;;;;;12.04;81.40;100135.96;130257;1276;114865;-78
2023/10/15 07:48:14;;;;;;;14.30;2.30;;;;;;;12.18;80.26;100137.52;130260;1260;115107;-79
2023/10/15 07:51:16;;;;;;;10.10;1.90;;;;;;;12.32;80.21;100140.97;130358;1257;114800;-85
2023/10/15 07:54:18;;;;;;;15.70;2.60;;;;;;;12.46;79.60;100140.88;130473;1256;114715;-81
2023/10/15 07:57:21;;;;;;;12.10;2.00;;;;;;;12.50;78.24;100139.02;130197;1268;116367;-80
2023/10/15 08:00:23;;;;;;;7.70;2.00;;;;;;;12.57;78.04;100137.48;130267;1268;115096;-80
2023/10/15 08:03:26;;;;;;;7.30;1.80;;;;;;;12.67;77.52;100135.70;130394;1265;114894;-80
2023/10/15 08:06:28;;;;;;;6.40;2.00;;;;;;;12.72;76.92;100135.91;130357;1261;128930;-79
2023/10/15 08:09:31;;;;;;;9.40;2.10;;;;;;;12.81;76.61;100135.36;130312;1265;114832;-78
2023/10/15 08:12:32;;;;;;;6.00;2.60;;;;;;;12.92;76.36;100135.59;130314;1257;115267;-80
2023/10/15 08:15:34;;;;;;;6.70;1.60;;;;;;;12.97;75.66;100138.17;130300;1267;114772;-80
2023/10/15 08:18:36;;;;;;;8.40;1.90;;;;;;;12.97;74.96;100133.48;130338;1254;114708;-72
2023/10/15 08:21:38;;;;;;;8.10;1.90;;;;;;;13.01;74.78;100137.88;130359;1257;114754;-79
2023/10/15 08:24:41;;;;;;;16.10;3.10;;;;;;;13.04;74.44;100138.57;130129;1257;114725;-79
2023/10/15 08:27:46;;;;;;;9.90;2.40;;;;;;;13.08;74.11;100137.84;130269;1272;114785;-77
2023/10/15 08:30:53;;;;;;;11.40;2.10;;;;;;;13.16;73.64;100143.59;130235;1267;115208;-63
2023/10/15 08:33:55;;;;;;;9.20;2.00;;;;;;;13.24;73.12;100148.15;130274;1260;114767;-68
2023/10/15 08:36:57;;;;;;;7.70;2.00;;;;;;;13.30;72.59;100148.81;129963;1259;114824;-63
2023/10/15 08:40:05;;;;;;;7.00;1.30;;;;;;;13.35;72.31;100147.94;129942;1270;114706;-67
2023/10/15 08:43:20;;;;;;;11.40;2.80;;;;;;;13.43;71.95;100151.77;129883;1257;128523;-65
2023/10/15 08:46:22;;;;;;;10.40;2.50;;;;;;;13.51;71.05;100153.61;129956;1274;114962;-63
2023/10/15 08:49:25;;;;;;;11.70;2.10;;;;;;;13.61;71.18;100153.90;130119;1257;114836;-63
2023/10/15 08:52:27;;;;;;;10.00;2.40;;;;;;;13.72;71.19;100151.18;130324;1263;115180;-63
2023/10/15 08:55:32;;;;;;;8.90;2.50;;;;;;;13.82;70.45;100149.99;130331;1257;114827;-64
2023/10/15 08:58:35;;;;;;;7.00;1.80;;;;;;;13.79;69.71;100150.71;129668;1254;114917;-62
2023/10/15 09:01:37;;;;;;;10.90;2.40;;;;;;;13.74;68.44;100151.42;129820;1260;114818;-63
2023/10/15 09:04:41;;;;;;;9.20;1.80;;;;;;;13.67;68.07;100152.77;129877;1270;114943;-63
2023/10/15 09:07:43;;;;;;;8.30;2.70;;;;;;;13.61;68.03;100147.96;130031;1254;115245;-63
2023/10/15 09:10:45;;;;;;;8.70;1.50;;;;;;;13.53;67.71;100152.04;129864;1254;114830;-63
2023/10/15 09:13:52;;;;;;;14.10;3.10;;;;;;;13.47;67.35;100149.90;130079;1258;114781;-68
2023/10/15 09:16:55;;;;;;;8.90;1.60;;;;;;;13.49;67.16;100149.95;130053;1254;114819;-69
2023/10/15 09:20:00;;;;;;;9.60;1.90;;;;;;;13.46;66.59;100147.64;130093;1260;115227;-63
2023/10/15 09:23:03;;;;;;;11.50;2.30;;;;;;;13.41;66.94;100147.98;129873;1255;115242;-69
2023/10/15 09:26:06;;;;;;;9.50;2.30;;;;;;;13.42;66.72;100142.17;130020;1257;114712;-64
2023/10/15 09:29:21;;;;;;;7.50;1.60;;;;;;;13.43;66.75;100142.80;130433;1257;114884;-63
2023/10/15 09:32:24;;;;;;;10.10;2.40;;;;;;;13.44;66.21;100143.48;129955;1261;116406;-63
2023/10/15 09:35:29;;;;;;;6.80;1.50;;;;;;;13.37;65.85;100139.55;130061;1254;128831;-71
2023/10/15 09:38:33;;;;;;;5.70;2.30;;;;;;;13.29;65.50;100135.59;129760;1272;115340;-72
2023/10/15 09:41:35;;;;;;;12.70;2.00;;;;;;;13.29;65.52;100130.75;130481;1258;114770;-72
2023/10/15 09:44:37;;;;;;;7.30;1.70;;;;;;;13.28;65.08;100133.53;130315;1264;114754;-65
2023/10/15 09:47:39;;;;;;;10.40;2.20;;;;;;;13.24;65.19;100133.25;130329;1258;115158;-65
2023/10/15 09:50:42;;;;;;;6.20;1.50;;;;;;;13.29;65.04;100130.76;130224;1258;114747;-70
2023/10/15 09:53:47;;;;;;;6.60;2.10;;;;;;;13.39;64.66;100131.20;130365;1258;115139;-66
2023/10/15 09:56:50;;;;;;;11.90;2.30;;;;;;;13.46;64.32;100134.04;130253;1266;114747;-72
2023/10/15 09:59:53;;;;;;;7.40;1.90;;;;;;;13.48;63.89;100130.98;130314;1258;114871;-66
2023/10/15 10:03:08;;;;;;;8.10;1.90;;;;;;;13.51;64.22;100132.94;130227;1254;114746;-64
2023/10/15 10:06:22;;;;;;;9.10;2.10;;;;;;;13.62;63.70;100131.73;129807;1270;114807;-66
2023/10/15 10:09:57;;;;;;;6.20;1.90;;;;;;;13.72;63.13;100129.63;129731;1273;128197;-63
2023/10/15 10:13:18;;;;;;;7.20;1.40;;;;;;;13.95;63.43;100128.33;130325;1254;115289;-63
2023/10/15 10:16:25;;;;;;;8.60;2.10;;;;;;;14.18;63.09;100117.98;130444;1257;114701;-63
2023/10/15 10:19:29;;;;;;;12.80;2.60;;;;;;;14.34;62.22;100113.84;130337;1254;114791;-64
2023/10/15 10:22:32;;;;;;;7.70;2.00;;;;;;;14.50;61.95;100106.88;130025;1253;114706;-69
2023/10/15 10:25:46;;;;;;;10.00;2.60;;;;;;;14.67;61.87;100101.17;130045;1267;115645;-62
2023/10/15 10:28:48;;;;;;;7.00;2.10;;;;;;;14.84;61.84;100099.47;129775;1263;115236;-75
2023/10/15 10:31:51;;;;;;;7.50;1.90;;;;;;;14.93;61.73;100094.20;130434;1258;114684;-66
2023/10/15 10:35:14;;;;;;;14.30;3.20;;;;;;;14.95;61.10;100088.27;130326;1257;115259;-74
2023/10/15 10:38:18;;;;;;;12.10;2.00;;;;;;;15.00;60.51;100088.45;130406;1253;114705;-72
2023/10/15 10:41:19;;;;;;;7.00;1.80;;;;;;;15.07;60.14;100086.92;130371;1276;128815;-67
2023/10/15 10:44:21;;;;;;;7.80;1.70;;;;;;;15.15;59.76;100090.44;130164;1257;114707;-68
2023/10/15 10:47:28;;;;;;;11.90;2.40;;;;;;;15.19;59.71;100093.57;130103;1267;114834;-64
2023/10/15 10:50:45;;;;;;;6.20;2.00;;;;;;;15.14;58.36;100087.48;130107;1257;114713;-69
2023/10/15 10:53:56;;;;;;;5.80;1.40;;;;;;;15.09;58.54;100084.81;129947;1254;115960;-69
2023/10/15 10:57:00;;;;;;;7.60;2.10;;;;;;;15.03;58.96;100087.71;129659;1263;114881;-69
2023/10/15 11:00:05;;;;;;;7.40;2.10;;;;;;;15.00;58.91;100089.35;130171;1276;126362;-71
2023/10/15 11:03:08;;;;;;;5.50;1.80;;;;;;;14.96;57.50;100089.63;130428;1276;114735;-64
2023/10/15 11:06:10;;;;;;;7.80;2.10;;;;;;;14.87;57.72;100089.05;130255;1256;115276;-70
2023/10/15 11:09:16;;;;;;;7.20;1.50;;;;;;;14.79;57.62;100088.35;129814;1276;114799;-68
2023/10/15 11:12:18;;;;;;;7.60;1.60;;;;;;;14.65;56.89;100086.59;130165;1261;114849;-66
2023/10/15 11:15:20;;;;;;;7.90;2.00;;;;;;;14.43;56.31;100083.61;130186;1254;114732;-68
2023/10/15 11:18:23;;;;;;;8.60;1.90;;;;;;;14.26;57.14;100089.75;130346;1261;115162;-70
2023/10/15 11:21:25;;;;;;;7.80;1.70;;;;;;;14.12;56.89;100087.17;130333;1257;114736;-70
2023/10/15 11:24:27;;;;;;;14.40;2.50;;;;;;;13.92;57.00;100087.79;130104;1259;114925;-68
2023/10/15 11:27:29;;;;;;;7.60;2.10;;;;;;;13.74;58.11;100080.15;129879;1259;115166;-63
2023/10/15 11:30:33;;;;;;;9.60;1.80;;;;;;;13.61;58.91;100070.97;130023;1276;115115;-65
2023/10/15 11:33:35;;;;;;;7.70;1.80;;;;;;;13.50;59.21;100072.41;129730;1260;115013;-67
2023/10/15 11:36:39;;;;;;;6.70;1.70;;;;;;;13.37;59.29;100065.48;129943;1257;114693;-72
2023/10/15 11:39:47;;;;;;;8.30;2.50;;;;;;;13.25;59.00;100064.13;130395;1258;115148;-66
2023/10/15 11:42:52;;;;;;;10.20;2.10;;;;;;;13.19;59.06;100061.65;130079;1257;115283;-66
2023/10/15 11:45:56;;;;;;;7.80;2.10;;;;;;;13.23;59.26;100059.02;129995;1262;114732;-67
2023/10/15 11:49:01;;;;;;;11.50;1.70;;;;;;;13.30;58.99;100061.10;130012;1276;114821;-65
2023/10/15 11:52:05;;;;;;;6.60;1.40;;;;;;;13.32;58.62;100060.98;130039;1257;127693;-64
2023/10/15 11:55:09;;;;;;;11.00;2.00;;;;;;;13.28;58.19;100067.17;130351;1257;114747;-72
2023/10/15 11:58:11;;;;;;;6.70;1.80;;;;;;;13.23;58.59;100066.90;129930;1276;114743;-66
2023/10/15 12:01:15;;;;;;;7.30;2.00;;;;;;;13.29;59.11;100068.34;130115;1276;114726;-63
2023/10/15 12:04:19;;;;;;;11.40;2.30;;;;;;;13.34;59.47;100069.43;130460;1257;115469;-65
2023/10/15 12:07:24;;;;;;;16.00;4.20;;;;;;;13.37;59.54;100068.84;130397;1277;114808;-63
2023/10/15 12:10:27;;;;;;;9.30;2.50;;;;;;;13.33;59.30;100067.17;130115;1264;115271;-65
2023/10/15 12:13:30;;;;;;;9.10;2.60;;;;;;;13.28;58.94;100064.14;130354;1254;114756;-64
2023/10/15 12:16:34;;;;;;;8.50;2.40;;;;;;;13.33;59.34;100066.45;130436;1259;115399;-67
2023/10/15 12:19:35;;;;;;;7.70;2.20;;;;;;;13.45;59.45;100065.14;130430;1273;114741;-68
2023/10/15 12:22:41;;;;;;;7.20;1.70;;;;;;;13.64;59.43;100062.88;130329;1255;114825;-64
2023/10/15 12:25:51;;;;;;;6.50;2.00;;;;;;;13.77;59.18;100061.83;130000;1254;114718;-64
2023/10/15 12:28:59;;;;;;;7.40;2.00;;;;;;;13.77;58.24;100061.31;130526;1257;114804;-65
2023/10/15 12:32:08;;;;;;;7.20;1.60;;;;;;;13.69;58.01;100060.23;130352;1257;114707;-65
2023/10/15 12:35:20;;;;;;;7.30;1.80;;;;;;;13.69;58.03;100060.41;130395;1254;114714;-69
2023/10/15 12:38:39;;;;;;;7.70;1.80;;;;;;;13.76;58.09;100055.98;130432;1253;128058;-67
2023/10/15 12:41:50;;;;;;;3.90;1.40;;;;;;;13.86;57.72;100052.27;130403;1257;115301;-64
2023/10/15 12:44:53;;;;;;;12.00;1.80;;;;;;;13.90;57.64;100058.98;129912;1273;114879;-67
2023/10/15 12:47:58;;;;;;;9.10;1.60;;;;;;;13.92;57.20;100057.23;130389;1254;114740;-65
2023/10/15 12:51:00;;;;;;;9.10;1.40;;;;;;;13.98;57.48;100049.65;130010;1258;114777;-72
2023/10/15 12:54:04;;;;;;;5.40;1.50;;;;;;;14.06;57.47;100047.54;130285;1276;114750;-69
2023/10/15 12:57:06;;;;;;;5.70;1.70;;;;;;;14.09;57.35;100053.03;130468;1276;115080;-63
2023/10/15 13:00:16;;;;;;;4.90;1.60;;;;;;;14.09;57.33;100056.63;130395;1254;115273;-65
2023/10/15 13:03:19;;;;;;;8.60;1.60;;;;;;;14.08;57.26;100051.32;130027;1254;114847;-63
2023/10/15 13:06:21;;;;;;;7.20;1.60;;;;;;;14.10;57.18;100050.06;129897;1254;115432;-67
2023/10/15 13:09:25;;;;;;;9.80;1.90;;;;;;;14.09;56.82;100048.02;130409;1253;115200;-65
2023/10/15 13:12:28;;;;;;;;;;;;;;;14.02;56.65;100045.59;130251;1256;114746;-62
2023/10/15 13:15:30;;;;;;;6.20;1.60;;;;;;;13.93;56.55;100047.48;129879;1258;115109;-65
2023/10/15 13:18:38;;;;;;;6.10;2.40;;;;;;;13.89;56.97;100049.72;129859;1273;116151;-68
2023/10/15 13:21:42;;;;;;;6.60;1.50;;;;;;;13.88;56.96;100055.77;130329;1257;115148;-69
2023/10/15 13:24:44;;;;;;;9.70;1.70;;;;;;;13.85;56.69;100049.61;130363;1275;114819;-68
2023/10/15 13:27:46;;;;;;;6.30;1.50;;;;;;;13.88;57.11;100049.63;130367;1276;114759;-68
2023/10/15 13:30:48;;;;;;;4.70;1.50;;;;;;;13.95;57.04;100051.31;130522;1257;114739;-68
2023/10/15 13:33:50;;;;;;;5.10;2.00;;;;;;;13.93;56.73;100049.10;130158;1257;116262;-69
2023/10/15 13:36:52;;;;;;;4.80;1.70;;;;;;;13.90;56.93;100050.20;130306;1257;114754;-67
2023/10/15 13:39:56;;;;;;;7.30;2.10;;;;;;;13.88;57.28;100054.50;130457;1254;114735;-64
2023/10/15 13:42:59;;;;;;;7.10;1.90;;;;;;;13.84;57.53;100048.41;130508;1276;114776;-64
2023/10/15 13:46:04;;;;;;;4.90;1.40;;;;;;;13.76;56.91;100047.36;130524;1254;114863;-64
2023/10/15 13:49:06;;;;;;;5.70;1.50;;;;;;;13.67;57.10;100046.85;130440;1254;114737;-63
2023/10/15 13:52:08;;;;;;;5.50;1.60;;;;;;;13.60;57.05;100045.75;130510;1254;115157;-65
2023/10/15 13:55:12;;;;;;;7.00;1.60;;;;;;;13.50;57.35;100045.64;130567;1270;115176;-66
2023/10/15 13:58:14;;;;;;;6.00;1.80;;;;;;;13.39;57.48;100055.67;130547;1257;127457;-69
2023/10/15 14:01:17;;;;;;;8.60;1.90;;;;;;;13.29;58.61;100051.52;130414;1256;114958;-66
2023/10/15 14:04:19;;;;;;;6.40;1.80;;;;;;;13.16;59.71;100054.48;130550;1273;114812;-67
2023/10/15 14:07:22;;;;;;;9.30;2.60;;;;;;;13.03;60.23;100056.36;130453;1268;114751;-67
2023/10/15 14:10:24;;;;;;;6.70;2.20;;;;;;;12.88;60.06;100054.83;129969;1262;114876;-66
2023/10/15 14:13:26;;;;;;;6.30;1.80;;;;;;;12.70;60.31;100065.97;130415;1257;115101;-69